Time;durP1;ratioP1;P1;durP2;ratioP2;P2;SDS_P1;SDS_P2;PMS_P1;PMS_P2;Temp;Humidity;BMP_temperature;BMP_pressure;BME280_temperature;BME280_humidity;BME280_pressure;Samples;Min_cycle;Max_cycle;Signal;HPM_P1;HPM_P2
2023/06/30 00:01:39;;;;;;;2.30;2.10;;;21.90;57.30;;;;;;5077168;28;20512;-76
2023/06/30 00:04:06;;;;;;;3.15;2.33;;;21.90;57.70;;;;;;5074414;28;20028;-76
2023/06/30 00:06:32;;;;;;;3.47;2.35;;;21.90;58.00;;;;;;5079748;28;20052;-76
2023/06/30 00:08:58;;;;;;;2.80;2.15;;;21.90;58.40;;;;;;5076456;28;20020;-78
2023/06/30 00:11:24;;;;;;;3.13;2.50;;;21.90;58.80;;;;;;5099085;28;20030;-76
2023/06/30 00:13:55;;;;;;;3.20;2.10;;;21.80;59.20;;;;;;5076864;28;20115;-76
2023/06/30 00:16:20;;;;;;;1.95;1.80;;;21.80;59.50;;;;;;5082594;28;20027;-77
2023/06/30 00:18:47;;;;;;;4.22;2.28;;;21.80;59.70;;;;;;5074050;28;20036;-77
2023/06/30 00:21:13;;;;;;;3.42;2.08;;;21.70;60.10;;;;;;5078320;28;20372;-76
2023/06/30 00:23:39;;;;;;;1.95;1.85;;;21.70;60.40;;;;;;5078371;28;20441;-76
2023/06/30 00:26:04;;;;;;;1.77;1.65;;;21.60;60.70;;;;;;5074412;28;20126;-76
2023/06/30 00:28:30;;;;;;;1.67;1.58;;;21.60;61.00;;;;;;5076069;28;20389;-77
2023/06/30 00:30:55;;;;;;;1.40;1.33;;;21.60;61.30;;;;;;5074549;28;20103;-77
2023/06/30 00:33:21;;;;;;;2.85;1.80;;;21.50;61.50;;;;;;5085139;28;20021;-77
2023/06/30 00:35:47;;;;;;;3.20;1.90;;;21.50;61.80;;;;;;5076998;28;20085;-76
2023/06/30 00:38:13;;;;;;;2.20;1.80;;;21.50;62.10;;;;;;5072392;28;20035;-76
2023/06/30 00:40:38;;;;;;;1.52;1.42;;;21.40;62.40;;;;;;5053357;28;20381;-76
2023/06/30 00:43:04;;;;;;;2.35;1.50;;;21.40;62.50;;;;;;5052844;28;20516;-76
2023/06/30 00:45:30;;;;;;;2.58;1.58;;;21.40;62.80;;;;;;5053290;28;20088;-76
2023/06/30 00:47:55;;;;;;;1.80;1.70;;;21.40;63.00;;;;;;5053803;28;20039;-77
2023/06/30 00:50:21;;;;;;;2.00;1.90;;;21.40;63.10;;;;;;5076607;28;20020;-77
2023/06/30 00:52:49;;;;;;;2.95;2.00;;;21.40;63.20;;;;;;5075043;28;20025;-77
2023/06/30 00:55:16;;;;;;;2.15;1.95;;;21.40;63.30;;;;;;5072644;28;20028;-77
2023/06/30 00:57:42;;;;;;;2.42;1.70;;;21.30;63.30;;;;;;5073003;28;20058;-77
2023/06/30 01:00:10;;;;;;;2.42;2.03;;;21.40;63.60;;;;;;5061343;28;20385;-76
2023/06/30 01:02:51;;;;;;;1.77;1.67;;;21.40;63.90;;;;;;5057634;28;20027;-78
2023/06/30 01:05:28;;;;;;;2.17;1.98;;;21.40;64.50;;;;;;5072839;28;20028;-77
2023/06/30 01:08:21;;;;;;;1.70;1.60;;;21.30;65.00;;;;;;5073824;28;20035;-78
2023/06/30 01:10:49;;;;;;;1.60;1.50;;;21.30;65.70;;;;;;5057668;28;20029;-77
2023/06/30 01:13:17;;;;;;;1.58;1.48;;;21.30;66.30;;;;;;5059982;28;20101;-76
2023/06/30 01:15:44;;;;;;;2.47;1.80;;;21.30;66.60;;;;;;5077655;28;20028;-78
2023/06/30 01:18:12;;;;;;;2.30;1.80;;;21.20;66.50;;;;;;5059577;28;20044;-77
2023/06/30 01:20:41;;;;;;;2.13;1.92;;;21.10;67.00;;;;;;5058713;28;20024;-76
2023/06/30 01:23:20;;;;;;;2.70;2.33;;;21.00;67.60;;;;;;5097140;28;20035;-77
2023/06/30 01:25:48;;;;;;;1.95;1.85;;;20.90;68.20;;;;;;5097563;28;20017;-76
2023/06/30 01:28:14;;;;;;;3.10;2.08;;;20.80;68.90;;;;;;5092223;28;20024;-77
2023/06/30 01:30:40;;;;;;;2.10;2.00;;;20.80;69.50;;;;;;5089785;28;20096;-78
2023/06/30 01:33:06;;;;;;;1.85;1.75;;;20.70;70.00;;;;;;5075798;28;20032;-77
2023/06/30 01:35:33;;;;;;;2.53;2.05;;;20.70;70.60;;;;;;5076535;28;20084;-77
2023/06/30 01:37:59;;;;;;;1.95;1.70;;;20.60;71.10;;;;;;5058301;28;20031;-76
2023/06/30 01:40:25;;;;;;;3.72;2.55;;;20.60;71.60;;;;;;5058266;28;20039;-78
2023/06/30 01:42:56;;;;;;;2.45;1.90;;;20.50;72.10;;;;;;5076489;28;20036;-77
2023/06/30 01:45:25;;;;;;;3.10;2.60;;;20.50;72.60;;;;;;5075823;28;20027;-76
2023/06/30 01:47:53;;;;;;;2.63;2.20;;;20.40;72.90;;;;;;5076130;28;20107;-77
2023/06/30 01:50:20;;;;;;;2.40;2.20;;;20.40;73.30;;;;;;5082182;28;20058;-77
2023/06/30 01:52:45;;;;;;;2.20;2.00;;;20.40;73.60;;;;;;5081508;28;20032;-77
2023/06/30 01:55:11;;;;;;;1.98;1.88;;;20.40;73.90;;;;;;5055828;28;20029;-77
2023/06/30 01:57:37;;;;;;;1.95;1.85;;;20.40;73.90;;;;;;5057525;28;20064;-76
2023/06/30 02:00:05;;;;;;;2.47;2.28;;;20.50;73.70;;;;;;5066800;28;20021;-75
2023/06/30 02:02:31;;;;;;;2.08;1.92;;;20.50;73.60;;;;;;5046172;28;20033;-76
2023/06/30 02:04:56;;;;;;;3.28;2.40;;;20.50;73.50;;;;;;5066886;28;20036;-76
2023/06/30 02:07:23;;;;;;;2.38;2.17;;;20.50;73.50;;;;;;5059300;28;20111;-76
2023/06/30 02:09:49;;;;;;;2.53;2.20;;;20.50;73.60;;;;;;5062603;28;20025;-76
2023/06/30 02:12:15;;;;;;;2.00;1.90;;;20.50;73.80;;;;;;5057759;28;20394;-77
2023/06/30 02:14:41;;;;;;;2.40;2.20;;;20.50;74.10;;;;;;5055533;28;20044;-77
2023/06/30 02:17:10;;;;;;;1.95;1.85;;;20.50;74.40;;;;;;5057114;28;20028;-77
2023/06/30 02:19:35;;;;;;;3.13;2.35;;;20.50;74.60;;;;;;5055680;28;20387;-77
2023/06/30 02:22:01;;;;;;;4.43;2.75;;;20.40;75.00;;;;;;5087475;28;20026;-77
2023/06/30 02:24:27;;;;;;;3.40;2.95;;;20.40;75.50;;;;;;5098515;28;20031;-77
2023/06/30 02:26:52;;;;;;;2.95;2.50;;;20.40;76.10;;;;;;5090059;28;20027;-77
2023/06/30 02:29:29;;;;;;;2.55;2.35;;;20.30;76.60;;;;;;5087335;28;20111;-77
2023/06/30 02:31:54;;;;;;;2.42;2.22;;;20.30;76.90;;;;;;5094172;28;20054;-76
2023/06/30 02:34:20;;;;;;;2.00;1.90;;;20.30;77.10;;;;;;5095956;28;20113;-76
2023/06/30 02:36:48;;;;;;;2.17;2.08;;;20.30;77.30;;;;;;5098129;28;20043;-77
2023/06/30 02:39:13;;;;;;;2.65;2.45;;;20.30;77.70;;;;;;5098643;28;20074;-78
2023/06/30 02:41:39;;;;;;;2.72;2.53;;;20.20;77.90;;;;;;5098888;28;20029;-77
2023/06/30 02:44:05;;;;;;;2.03;1.92;;;20.20;78.40;;;;;;5097294;28;20009;-82
2023/06/30 02:46:30;;;;;;;3.10;2.30;;;20.20;78.90;;;;;;5083178;28;20040;-82
2023/06/30 02:48:56;;;;;;;3.20;2.90;;;20.20;79.40;;;;;;5076951;28;20115;-82
2023/06/30 02:51:21;;;;;;;2.85;2.65;;;20.10;80.00;;;;;;5088991;28;20043;-81
2023/06/30 02:53:47;;;;;;;2.72;2.53;;;20.00;80.60;;;;;;5085330;28;20088;-81
2023/06/30 02:56:13;;;;;;;3.00;2.70;;;20.00;81.20;;;;;;5082995;28;20078;-83
2023/06/30 02:58:39;;;;;;;2.58;2.30;;;20.00;81.80;;;;;;5081110;28;20021;-82
2023/06/30 03:01:05;;;;;;;2.50;2.25;;;20.00;82.20;;;;;;5085994;28;20021;-82
2023/06/30 03:03:32;;;;;;;2.83;2.63;;;20.00;82.50;;;;;;5056203;28;20021;-81
2023/06/30 03:05:58;;;;;;;2.50;2.30;;;20.00;82.80;;;;;;5041263;28;20029;-82
2023/06/30 03:08:24;;;;;;;3.13;2.75;;;20.00;83.10;;;;;;5042623;28;20045;-81
2023/06/30 03:10:50;;;;;;;2.38;2.22;;;20.00;83.30;;;;;;5058574;28;20021;-80
2023/06/30 03:13:15;;;;;;;2.40;1.90;;;20.10;83.30;;;;;;5060077;28;20033;-80
2023/06/30 03:15:41;;;;;;;2.50;2.30;;;20.10;83.20;;;;;;5075052;28;20025;-80
2023/06/30 03:18:06;;;;;;;2.38;2.17;;;20.10;83.10;;;;;;5078627;28;20025;-80
2023/06/30 03:20:32;;;;;;;2.65;2.45;;;20.10;83.20;;;;;;5072303;28;20402;-81
2023/06/30 03:22:58;;;;;;;2.13;2.03;;;20.10;83.60;;;;;;5058825;28;20036;-80
2023/06/30 03:25:23;;;;;;;2.10;1.95;;;20.10;84.10;;;;;;5057153;28;20105;-80
2023/06/30 03:27:49;;;;;;;2.00;1.83;;;20.10;84.70;;;;;;5040375;28;20033;-79
2023/06/30 03:30:16;;;;;;;5.57;3.20;;;20.10;84.90;;;;;;5058822;28;20389;-79
2023/06/30 03:32:41;;;;;;;4.47;3.30;;;20.10;85.20;;;;;;5073973;28;20100;-79
2023/06/30 03:35:07;;;;;;;3.15;2.83;;;20.00;85.90;;;;;;5080794;28;20044;-81
2023/06/30 03:37:33;;;;;;;3.10;2.80;;;20.00;87.30;;;;;;5076833;28;20021;-79
2023/06/30 03:40:05;;;;;;;3.15;2.88;;;20.00;88.20;;;;;;5076901;28;20035;-78
2023/06/30 03:42:31;;;;;;;2.63;2.42;;;19.90;88.30;;;;;;5077724;28;20021;-81
2023/06/30 03:44:57;;;;;;;2.33;2.10;;;20.00;88.80;;;;;;5079088;28;20048;-78
2023/06/30 03:47:22;;;;;;;2.67;2.47;;;20.00;89.20;;;;;;5051830;28;20039;-79
2023/06/30 03:49:48;;;;;;;2.10;2.00;;;20.00;89.60;;;;;;5079865;28;20027;-79
2023/06/30 03:52:14;;;;;;;2.47;2.28;;;20.10;89.90;;;;;;5085834;28;20017;-79
2023/06/30 03:54:39;;;;;;;2.65;2.45;;;20.10;90.00;;;;;;5056918;28;20461;-79
2023/06/30 03:57:05;;;;;;;2.50;2.30;;;20.10;90.00;;;;;;5058114;28;20020;-80
2023/06/30 03:59:31;;;;;;;3.05;2.38;;;20.10;90.10;;;;;;5058235;28;20047;-78
2023/06/30 04:01:56;;;;;;;2.47;2.28;;;20.10;90.10;;;;;;5059706;28;20025;-79
2023/06/30 04:04:22;;;;;;;2.42;2.10;;;20.10;90.10;;;;;;5061656;28;20017;-78
2023/06/30 04:06:48;;;;;;;2.95;2.08;;;20.00;89.90;;;;;;5079172;28;20040;-80
2023/06/30 04:09:13;;;;;;;2.50;2.30;;;20.00;89.90;;;;;;5088074;28;20036;-77
2023/06/30 04:11:39;;;;;;;2.30;2.10;;;20.00;89.90;;;;;;5073312;28;20016;-77
2023/06/30 04:14:05;;;;;;;2.50;2.30;;;19.90;90.00;;;;;;5067022;28;20119;-78
2023/06/30 04:16:31;;;;;;;2.08;1.88;;;19.90;90.20;;;;;;5065318;28;20115;-78
2023/06/30 04:18:56;;;;;;;2.08;1.98;;;19.90;90.50;;;;;;5084563;28;20071;-78
2023/06/30 04:21:22;;;;;;;2.28;2.08;;;19.90;90.90;;;;;;5089505;28;20090;-80
2023/06/30 04:23:48;;;;;;;2.05;1.95;;;19.80;91.10;;;;;;5084084;28;20446;-80
2023/06/30 04:26:16;;;;;;;1.20;1.20;;;19.80;91.50;;;;;;5081399;28;20045;-80
2023/06/30 04:28:43;;;;;;;2.00;1.90;;;19.80;91.60;;;;;;5082098;28;20024;-80
2023/06/30 04:31:08;;;;;;;2.53;2.33;;;19.70;91.90;;;;;;5082736;28;20075;-80
2023/06/30 04:33:34;;;;;;;2.33;2.13;;;19.60;92.30;;;;;;5082171;28;20032;-80
2023/06/30 04:36:00;;;;;;;2.42;2.22;;;19.50;92.90;;;;;;5066791;28;20029;-79
2023/06/30 04:38:27;;;;;;;2.78;2.53;;;19.50;93.30;;;;;;5042844;28;20025;-80
2023/06/30 04:40:53;;;;;;;2.22;2.03;;;19.50;93.80;;;;;;5061836;28;20039;-80
2023/06/30 04:43:19;;;;;;;2.35;2.15;;;19.50;94.30;;;;;;5074284;28;20016;-79
2023/06/30 04:45:45;;;;;;;3.10;2.58;;;19.40;94.60;;;;;;5075306;28;20035;-79
2023/06/30 04:48:11;;;;;;;3.00;2.70;;;19.40;95.10;;;;;;5075196;28;20021;-80
2023/06/30 04:50:36;;;;;;;3.35;3.05;;;19.30;95.70;;;;;;5083458;28;20032;-78
2023/06/30 04:53:02;;;;;;;2.63;2.42;;;19.30;96.50;;;;;;5100429;28;20214;-80
2023/06/30 04:55:28;;;;;;;2.72;2.50;;;19.20;97.10;;;;;;5086734;28;20029;-80
2023/06/30 04:57:55;;;;;;;2.53;2.33;;;19.40;97.60;;;;;;5091415;28;20029;-79
2023/06/30 05:00:21;;;;;;;1.98;1.88;;;19.40;97.80;;;;;;5094512;28;20080;-79
2023/06/30 05:02:47;;;;;;;2.45;2.25;;;19.50;97.80;;;;;;5080643;28;20028;-79
2023/06/30 05:05:13;;;;;;;2.35;2.15;;;19.60;97.80;;;;;;5080781;28;20025;-80
2023/06/30 05:07:39;;;;;;;2.10;1.90;;;19.70;98.00;;;;;;5088642;28;20031;-79
2023/06/30 05:10:05;;;;;;;1.90;1.80;;;19.80;98.00;;;;;;5063199;28;20389;-79
2023/06/30 05:12:31;;;;;;;1.85;1.75;;;20.00;97.70;;;;;;5080489;28;20020;-79
2023/06/30 05:14:56;;;;;;;1.95;1.85;;;20.10;97.30;;;;;;5068045;28;20039;-77
2023/06/30 05:17:22;;;;;;;1.83;1.73;;;20.30;97.10;;;;;;5087179;28;20024;-79
2023/06/30 05:19:47;;;;;;;1.83;1.73;;;20.40;96.40;;;;;;5084367;28;20025;-81
2023/06/30 05:22:13;;;;;;;1.55;1.45;;;20.50;96.10;;;;;;5101957;28;20013;-81
2023/06/30 05:24:39;;;;;;;2.35;1.65;;;20.60;96.00;;;;;;5084264;28;20024;-80
2023/06/30 05:27:05;;;;;;;1.73;1.63;;;20.70;96.00;;;;;;5083402;28;20024;-80
2023/06/30 05:29:31;;;;;;;2.22;2.03;;;20.80;96.10;;;;;;5054118;28;20025;-79
2023/06/30 05:31:57;;;;;;;2.22;2.03;;;20.80;96.20;;;;;;5068483;28;20445;-78
2023/06/30 05:34:24;;;;;;;2.53;2.33;;;20.80;96.10;;;;;;5083738;28;20029;-80
2023/06/30 05:36:50;;;;;;;2.20;2.10;;;20.80;95.90;;;;;;5065292;28;20035;-80
2023/06/30 05:39:15;;;;;;;2.78;2.47;;;20.70;96.00;;;;;;5077510;28;20103;-78
2023/06/30 05:41:41;;;;;;;4.68;3.53;;;20.70;96.30;;;;;;5079944;28;20044;-79
2023/06/30 05:44:07;;;;;;;3.20;2.90;;;20.60;96.30;;;;;;5067337;28;20028;-78
2023/06/30 05:46:39;;;;;;;2.90;2.63;;;20.40;96.40;;;;;;5099284;28;20024;-79
2023/06/30 05:49:05;;;;;;;4.38;3.38;;;20.40;96.60;;;;;;5095949;28;20021;-78
2023/06/30 05:51:35;;;;;;;3.45;3.00;;;20.30;96.60;;;;;;5083702;28;20008;-78
2023/06/30 05:54:03;;;;;;;3.03;2.72;;;20.30;96.60;;;;;;5101428;28;20508;-79
2023/06/30 05:56:29;;;;;;;2.92;2.70;;;20.30;96.70;;;;;;5093391;28;20043;-77
2023/06/30 05:58:55;;;;;;;2.92;2.65;;;20.20;96.80;;;;;;5077577;28;20024;-78
2023/06/30 06:01:21;;;;;;;3.15;2.85;;;20.20;96.70;;;;;;5090066;28;20025;-79
2023/06/30 06:03:48;;;;;;;2.80;2.60;;;20.20;96.90;;;;;;5085469;28;20029;-80
2023/06/30 06:06:14;;;;;;;3.15;2.55;;;20.20;97.10;;;;;;5085439;28;20020;-82
2023/06/30 06:08:42;;;;;;;2.58;2.38;;;20.20;97.20;;;;;;5067501;28;20193;-81
2023/06/30 06:11:08;;;;;;;3.20;2.88;;;20.20;97.40;;;;;;5085648;28;20254;-80
2023/06/30 06:13:34;;;;;;;2.85;2.58;;;20.20;97.50;;;;;;5065885;28;20039;-80
2023/06/30 06:16:01;;;;;;;3.75;3.00;;;20.20;97.80;;;;;;5081797;28;20088;-79
2023/06/30 06:18:27;;;;;;;2.50;2.30;;;20.20;97.80;;;;;;5066402;28;20020;-80
2023/06/30 06:20:53;;;;;;;2.95;2.70;;;20.30;97.90;;;;;;5087483;28;20031;-81
2023/06/30 06:23:18;;;;;;;3.15;2.85;;;20.40;97.60;;;;;;5077489;28;20020;-80
2023/06/30 06:25:44;;;;;;;2.85;2.65;;;20.30;97.50;;;;;;5085668;28;20116;-80
2023/06/30 06:28:10;;;;;;;2.60;2.40;;;20.40;97.50;;;;;;5086030;28;20020;-80
2023/06/30 06:30:35;;;;;;;2.58;2.38;;;20.40;97.40;;;;;;5084253;28;20020;-79
2023/06/30 06:33:01;;;;;;;2.88;2.65;;;20.50;97.40;;;;;;5084957;28;20029;-82
2023/06/30 06:35:27;;;;;;;2.80;2.60;;;20.50;97.40;;;;;;5083515;28;20385;-79
2023/06/30 06:37:53;;;;;;;2.38;2.17;;;20.60;97.20;;;;;;5064865;28;20020;-79
2023/06/30 06:40:19;;;;;;;2.55;2.35;;;20.70;97.10;;;;;;5080893;28;20021;-80
2023/06/30 06:42:45;;;;;;;2.25;2.08;;;20.70;97.10;;;;;;5081050;28;20033;-80
2023/06/30 06:45:12;;;;;;;2.20;2.10;;;20.70;96.50;;;;;;5092276;28;20043;-82
2023/06/30 06:48:15;;;;;;;2.72;2.53;;;20.80;96.10;;;;;;5082809;28;20020;-80
2023/06/30 06:50:41;;;;;;;2.70;2.50;;;20.80;95.80;;;;;;5090080;28;20029;-80
2023/06/30 06:53:06;;;;;;;2.75;2.55;;;20.80;95.70;;;;;;5080528;28;20041;-80
2023/06/30 06:55:32;;;;;;;2.97;2.78;;;20.90;95.70;;;;;;5080293;28;20035;-80
2023/06/30 06:57:58;;;;;;;3.45;3.15;;;20.80;95.70;;;;;;5081811;28;20028;-80
2023/06/30 07:00:23;;;;;;;2.92;2.67;;;20.80;95.70;;;;;;5082138;28;20025;-80
2023/06/30 07:02:50;;;;;;;3.72;3.42;;;20.80;96.00;;;;;;5080959;28;20437;-80
2023/06/30 07:05:15;;;;;;;4.28;3.78;;;20.70;96.30;;;;;;5081032;28;20020;-80
2023/06/30 07:07:41;;;;;;;4.22;3.58;;;20.70;96.60;;;;;;5081990;28;20054;-80
2023/06/30 07:10:07;;;;;;;5.45;3.88;;;20.70;97.00;;;;;;5081423;28;20031;-81
2023/06/30 07:12:33;;;;;;;6.80;5.05;;;20.70;97.20;;;;;;5084177;28;20020;-80
2023/06/30 07:14:58;;;;;;;5.88;4.97;;;20.60;97.00;;;;;;5066626;28;20032;-79
2023/06/30 07:17:24;;;;;;;6.65;4.75;;;20.60;96.50;;;;;;5085094;28;20381;-78
2023/06/30 07:19:50;;;;;;;6.65;5.63;;;20.60;96.40;;;;;;5085877;28;20028;-79
2023/06/30 07:22:15;;;;;;;5.72;5.13;;;20.60;96.10;;;;;;5090843;28;20409;-80
2023/06/30 07:24:41;;;;;;;6.38;5.47;;;20.60;96.40;;;;;;5094976;28;20024;-79
2023/06/30 07:27:07;;;;;;;6.43;5.53;;;20.70;96.70;;;;;;5083158;28;20077;-80
2023/06/30 07:29:33;;;;;;;5.70;5.10;;;20.70;97.00;;;;;;5086209;28;20436;-79
2023/06/30 07:31:58;;;;;;;6.10;5.15;;;20.70;97.40;;;;;;5084385;28;20469;-78
2023/06/30 07:34:25;;;;;;;6.63;5.18;;;20.70;97.30;;;;;;5084144;28;20163;-79
2023/06/30 07:36:51;;;;;;;6.38;5.03;;;20.70;97.30;;;;;;5084615;28;20044;-80
2023/06/30 07:39:17;;;;;;;9.35;6.78;;;20.80;97.10;;;;;;5062800;28;20033;-80
2023/06/30 07:41:43;;;;;;;8.07;5.97;;;20.80;96.80;;;;;;5091630;28;20008;-78
2023/06/30 07:44:11;;;;;;;7.43;6.47;;;20.90;97.00;;;;;;5092553;28;20092;-80
2023/06/30 07:46:38;;;;;;;6.03;5.43;;;20.90;97.00;;;;;;5087536;28;20091;-79
2023/06/30 07:49:04;;;;;;;6.50;5.70;;;20.90;96.90;;;;;;5082760;28;20052;-79
2023/06/30 07:51:30;;;;;;;7.15;5.70;;;21.00;96.90;;;;;;5093538;28;20028;-78
2023/06/30 07:53:56;;;;;;;5.65;5.05;;;21.00;97.00;;;;;;5090333;28;20036;-78
2023/06/30 07:56:23;;;;;;;5.93;5.22;;;21.00;97.00;;;;;;5095626;28;20088;-80
2023/06/30 07:58:49;;;;;;;5.40;4.90;;;21.10;97.10;;;;;;5078919;28;20117;-80
2023/06/30 08:01:15;;;;;;;6.25;4.72;;;21.10;97.10;;;;;;5081406;28;20037;-80
2023/06/30 08:03:41;;;;;;;5.95;5.35;;;21.10;97.20;;;;;;5081310;28;20036;-77
2023/06/30 08:06:06;;;;;;;5.22;4.72;;;21.10;97.00;;;;;;5080827;28;20073;-81
2023/06/30 08:08:32;;;;;;;5.57;4.40;;;21.00;97.00;;;;;;5082436;28;20489;-79
2023/06/30 08:10:59;;;;;;;5.10;4.60;;;21.10;97.30;;;;;;5096713;28;20035;-79
2023/06/30 08:13:25;;;;;;;5.95;5.18;;;21.10;97.30;;;;;;5074376;28;20440;-79
2023/06/30 08:15:51;;;;;;;6.72;5.93;;;21.00;97.10;;;;;;5080282;28;20477;-79
2023/06/30 08:18:17;;;;;;;6.70;5.47;;;21.00;97.30;;;;;;5081655;28;20032;-79
2023/06/30 08:20:43;;;;;;;6.80;5.70;;;21.00;97.40;;;;;;5071877;28;20526;-78
2023/06/30 08:23:12;;;;;;;6.35;5.45;;;21.00;97.70;;;;;;5069581;28;20013;-78
2023/06/30 08:25:37;;;;;;;5.60;5.00;;;21.10;97.80;;;;;;5068201;28;20036;-81
2023/06/30 08:28:03;;;;;;;5.30;4.78;;;21.10;97.50;;;;;;5080477;28;20469;-80
2023/06/30 08:30:29;;;;;;;5.05;4.55;;;21.20;97.00;;;;;;5079728;28;20063;-80
2023/06/30 08:32:55;;;;;;;5.07;4.57;;;21.20;96.50;;;;;;5083978;28;20028;-78
2023/06/30 08:35:20;;;;;;;5.13;4.63;;;21.30;96.10;;;;;;5063635;28;20041;-79
2023/06/30 08:37:46;;;;;;;5.22;4.30;;;21.40;95.70;;;;;;5086570;28;20043;-79
2023/06/30 08:40:12;;;;;;;5.20;4.70;;;21.60;95.00;;;;;;5068318;28;20028;-80
2023/06/30 08:42:44;;;;;;;4.63;4.22;;;21.80;94.30;;;;;;5082646;28;20510;-78
2023/06/30 08:45:12;;;;;;;;;;;22.10;93.50;;;;;;5082636;28;20031;-82
2023/06/30 08:47:38;;;;;;;3.75;3.45;;;22.40;92.60;;;;;;5086200;28;19908;-80
2023/06/30 08:50:06;;;;;;;4.38;3.58;;;22.70;91.90;;;;;;5096110;28;20088;-79
2023/06/30 08:52:32;;;;;;;5.05;3.90;;;22.90;91.00;;;;;;5108313;28;20034;-78
2023/06/30 08:55:01;;;;;;;5.03;4.00;;;23.20;90.40;;;;;;5100366;28;20013;-80
2023/06/30 08:57:27;;;;;;;4.40;4.00;;;23.40;88.40;;;;;;5083082;28;20032;-81
2023/06/30 08:59:52;;;;;;;4.78;4.25;;;23.50;85.90;;;;;;5084018;28;20024;-80
2023/06/30 09:02:19;;;;;;;4.88;4.38;;;23.60;85.10;;;;;;5079691;28;20499;-80
2023/06/30 09:04:45;;;;;;;4.28;3.88;;;23.60;85.40;;;;;;5070691;28;20073;-79
2023/06/30 09:07:22;;;;;;;3.97;3.58;;;23.70;84.80;;;;;;5095942;28;20055;-79
2023/06/30 09:10:05;;;;;;;4.28;3.85;;;23.70;84.60;;;;;;5096206;28;20032;-78
2023/06/30 09:12:31;;;;;;;5.20;4.57;;;23.70;84.20;;;;;;5079649;28;20096;-78
2023/06/30 09:14:59;;;;;;;5.10;4.60;;;23.60;83.80;;;;;;5079094;28;20051;-77
2023/06/30 09:17:26;;;;;;;4.60;4.15;;;23.50;84.40;;;;;;5096989;28;20023;-78
2023/06/30 09:19:52;;;;;;;4.50;4.00;;;23.40;84.80;;;;;;5096658;28;20021;-80
2023/06/30 09:22:20;;;;;;;4.00;3.70;;;23.60;84.70;;;;;;5082907;28;20028;-81
2023/06/30 09:24:47;;;;;;;3.72;3.42;;;23.80;84.30;;;;;;5080077;28;20032;-81
2023/06/30 09:27:13;;;;;;;4.40;4.00;;;24.10;83.00;;;;;;5079475;28;20130;-80
2023/06/30 09:29:39;;;;;;;4.97;4.30;;;24.30;81.70;;;;;;5079196;28;20021;-80
2023/06/30 09:32:05;;;;;;;5.30;4.80;;;24.50;80.20;;;;;;5060889;28;20421;-81
2023/06/30 09:34:31;;;;;;;5.43;4.93;;;;;;;;;;5082798;28;20025;-81
2023/06/30 09:36:57;;;;;;;7.55;6.28;;;;;;;;;;5065773;28;20045;-80
2023/06/30 09:39:23;;;;;;;7.38;6.45;;;;;;;;;;5066560;28;20052;-81
2023/06/30 09:41:51;;;;;;;7.03;6.32;;;;;;;;;;5082749;28;20032;-81
2023/06/30 09:44:20;;;;;;;7.25;6.25;;;;;;;;;;5083545;28;20023;-80
2023/06/30 09:46:55;;;;;;;6.95;6.25;;;;;;;;;;5085155;28;20032;-80
2023/06/30 09:49:25;;;;;;;7.88;6.90;;;;;;;;;;5084462;28;20020;-81
2023/06/30 09:51:51;;;;;;;7.20;6.50;;;;;;;;;;5094659;28;20033;-80
2023/06/30 09:54:20;;;;;;;8.90;7.82;;;;;;;;;;5086805;28;20044;-80
2023/06/30 09:56:46;;;;;;;9.77;8.27;;;;;;;;;;5091160;28;20032;-80
2023/06/30 09:59:13;;;;;;;9.27;7.72;;;;;;;;;;5092397;28;20032;-81
2023/06/30 10:01:40;;;;;;;8.60;7.63;;;;;;;;;;5074725;28;20024;-81
2023/06/30 10:04:06;;;;;;;11.20;8.88;;;;;;;;;;5091190;28;20032;-80
2023/06/30 10:06:32;;;;;;;11.40;9.68;;;;;;;;;;5092875;28;20034;-79
2023/06/30 10:08:59;;;;;;;11.73;10.43;;;;;;;;;;5098347;28;20019;-77
2023/06/30 10:11:26;;;;;;;11.82;9.63;;;;;;;;;;5073713;28;20792;-79
2023/06/30 10:13:54;;;;;;;10.55;9.50;;;;;;;;;;5086981;28;20020;-80
2023/06/30 10:16:21;;;;;;;11.98;10.48;;;;;;;;;;5088487;28;20029;-80
2023/06/30 10:18:47;;;;;;;11.02;9.93;;;;;;;;;;5087714;28;20054;-80
2023/06/30 10:21:13;;;;;;;11.18;9.75;;;;;;;;;;5092482;28;20031;-80
2023/06/30 10:23:41;;;;;;;9.93;8.93;;;;;;;;;;5101153;28;20017;-79
2023/06/30 10:26:07;;;;;;;11.48;9.60;;;;;;;;;;5087802;28;20024;-80
2023/06/30 10:28:37;;;;;;;9.23;8.32;;;;;;;;;;5087237;28;20444;-80
2023/06/30 10:31:04;;;;;;;9.90;8.55;;;;;;;;;;5087041;28;20097;-80
2023/06/30 10:33:30;;;;;;;9.82;8.68;;;;;;;;;;5087950;28;20054;-80
2023/06/30 10:35:57;;;;;;;9.52;8.32;;;;;;;;;;5068450;28;20063;-80
2023/06/30 10:38:24;;;;;;;9.40;8.00;;;24.70;69.40;;;;;;5090823;28;20043;-79
2023/06/30 10:41:10;;;;;;;13.70;10.90;;;24.50;70.50;;;;;;5077748;28;20084;-79
2023/06/30 10:44:07;;;;;;;13.10;10.50;;;24.10;72.10;;;;;;5085862;28;20020;-79
2023/06/30 10:47:00;;;;;;;12.98;10.45;;;23.60;74.50;;;;;;5093237;28;20119;-81
2023/06/30 10:49:40;;;;;;;11.93;9.43;;;23.30;77.00;;;;;;5068151;28;20044;-80
2023/06/30 10:52:11;;;;;;;10.70;9.10;;;23.10;78.40;;;;;;5096317;28;20020;-80
2023/06/30 10:54:48;;;;;;;16.40;13.25;;;23.00;80.30;;;;;;5098006;28;20465;-80
2023/06/30 10:57:24;;;;;;;17.63;12.48;;;23.00;81.50;;;;;;5067877;28;20059;-80
2023/06/30 11:00:13;;;;;;;13.77;11.63;;;23.00;83.20;;;;;;5067824;28;20025;-79
2023/06/30 11:02:59;;;;;;;14.82;10.75;;;22.90;84.60;;;;;;5084488;28;20160;-79
2023/06/30 11:05:30;;;;;;;16.20;12.82;;;22.80;85.40;;;;;;5049529;28;20398;-80
2023/06/30 11:08:01;;;;;;;14.57;11.67;;;22.70;86.70;;;;;;5068151;28;20086;-80
2023/06/30 11:10:33;;;;;;;14.35;11.57;;;22.40;88.90;;;;;;5082893;28;20328;-79
2023/06/30 11:12:59;;;;;;;;;;;22.20;90.10;;;;;;5083361;28;20039;-80
2023/06/30 11:15:36;;;;;;;14.63;10.13;;;22.20;91.40;;;;;;5082078;28;19919;-80
2023/06/30 11:18:27;;;;;;;13.23;10.10;;;22.30;91.60;;;;;;5078859;28;20103;-80
2023/06/30 11:21:00;;;;;;;14.13;10.07;;;22.40;91.60;;;;;;5078018;28;20033;-79
2023/06/30 11:23:37;;;;;;;12.07;8.95;;;22.50;92.00;;;;;;5077219;28;20032;-79
2023/06/30 11:26:17;;;;;;;10.77;8.60;;;22.60;92.30;;;;;;5081451;28;20059;-81
2023/06/30 11:28:48;;;;;;;12.73;8.45;;;22.80;92.60;;;;;;5066388;28;20089;-81
2023/06/30 11:31:15;;;;;;;10.70;8.53;;;23.30;92.50;;;;;;5071650;28;20477;-79
2023/06/30 11:33:45;;;;;;;11.45;9.63;;;23.80;90.70;;;;;;5083350;28;20029;-79
2023/06/30 11:36:15;;;;;;;10.00;8.82;;;24.10;89.90;;;;;;5074821;28;20033;-81
2023/06/30 11:38:48;;;;;;;10.10;8.60;;;24.30;89.10;;;;;;5055682;28;20020;-80
2023/06/30 11:41:23;;;;;;;9.68;8.60;;;24.60;88.90;;;;;;5081804;28;20032;-80
2023/06/30 11:43:56;;;;;;;9.70;7.72;;;24.90;86.70;;;;;;5068429;28;20045;-80
2023/06/30 11:46:22;;;;;;;8.52;7.70;;;25.10;85.70;;;;;;5065783;28;20021;-81
2023/06/30 11:48:49;;;;;;;8.25;7.18;;;25.40;83.80;;;;;;5068678;28;20025;-79
2023/06/30 11:51:16;;;;;;;8.02;7.28;;;25.50;82.70;;;;;;5090986;28;20044;-80
2023/06/30 11:53:49;;;;;;;6.60;5.90;;;25.60;81.80;;;;;;5100136;28;20050;-81
2023/06/30 11:56:17;;;;;;;6.70;6.05;;;25.80;81.80;;;;;;5099435;28;20021;-80
2023/06/30 11:58:53;;;;;;;6.22;5.53;;;25.90;81.10;;;;;;5083318;28;20021;-81
2023/06/30 12:01:20;;;;;;;7.05;6.35;;;25.90;81.00;;;;;;5065934;28;20040;-79
2023/06/30 12:03:46;;;;;;;7.85;7.05;;;26.00;79.30;;;;;;5083607;28;20027;-80
2023/06/30 12:06:18;;;;;;;8.02;6.90;;;25.80;79.70;;;;;;5083460;28;20060;-80
2023/06/30 12:08:45;;;;;;;7.55;6.78;;;25.80;79.10;;;;;;5083442;28;20029;-80
2023/06/30 12:11:11;;;;;;;7.50;6.70;;;25.90;78.20;;;;;;5083787;28;20020;-79
2023/06/30 12:13:41;;;;;;;7.30;6.60;;;26.00;77.60;;;;;;5082789;28;20024;-80
2023/06/30 12:16:07;;;;;;;8.77;7.57;;;26.00;76.20;;;;;;5083020;28;20050;-79
2023/06/30 12:18:37;;;;;;;7.47;6.72;;;26.30;75.30;;;;;;5048346;28;20042;-80
2023/06/30 12:21:13;;;;;;;7.15;6.22;;;26.60;74.90;;;;;;5086150;28;20080;-80
2023/06/30 12:23:45;;;;;;;6.03;5.43;;;27.30;73.10;;;;;;5096557;28;20024;-78
2023/06/30 12:26:11;;;;;;;6.45;5.85;;;27.50;70.70;;;;;;5096564;28;20013;-78
2023/06/30 12:28:38;;;;;;;6.72;6.03;;;27.60;70.00;;;;;;5096072;28;20041;-79
2023/06/30 12:31:03;;;;;;;5.88;5.22;;;27.80;69.50;;;;;;5078591;28;20040;-78
2023/06/30 12:33:29;;;;;;;8.45;6.88;;;28.00;67.80;;;;;;5078259;28;20032;-79
2023/06/30 12:35:55;;;;;;;7.57;6.57;;;28.30;66.90;;;;;;5095414;28;20032;-79
2023/06/30 12:38:21;;;;;;;6.90;6.15;;;28.50;64.40;;;;;;5076738;28;20082;-81
2023/06/30 12:40:46;;;;;;;7.05;6.35;;;28.50;63.40;;;;;;5080555;28;20028;-81
2023/06/30 12:43:12;;;;;;;7.13;6.43;;;28.50;63.20;;;;;;5082085;28;20516;-83
2023/06/30 12:45:38;;;;;;;7.28;6.57;;;28.60;62.80;;;;;;5090739;28;20036;-81
2023/06/30 12:48:03;;;;;;;7.40;6.57;;;28.60;63.10;;;;;;5091189;28;20009;-79
2023/06/30 12:50:29;;;;;;;6.93;6.22;;;28.40;63.50;;;;;;5090986;28;20039;-80
2023/06/30 12:52:56;;;;;;;7.18;6.47;;;28.10;64.40;;;;;;5094044;28;20028;-79
2023/06/30 12:55:22;;;;;;;6.78;6.07;;;28.10;65.40;;;;;;5081403;28;20477;-79
2023/06/30 12:57:48;;;;;;;6.32;5.68;;;;;;;;;;5078702;28;20054;-80